createdAt,value
2023-04-18T00:00:47.879Z,15.3247
2023-04-18T00:01:50.205Z,15.3454
2023-04-18T00:02:50.849Z,15.3619
2023-04-18T00:03:52.283Z,15.3411
2023-04-18T00:04:53.723Z,15.3483
2023-04-18T00:05:54.936Z,15.3495
2023-04-18T00:06:56.430Z,15.3516
2023-04-18T00:07:57.795Z,15.3777
2023-04-18T00:08:59.335Z,15.3725
2023-04-18T00:10:00.711Z,15.3407
2023-04-18T00:11:02.164Z,15.3446
2023-04-18T00:12:03.510Z,15.3401
2023-04-18T00:13:05.013Z,15.3610
2023-04-18T00:14:07.169Z,15.3608
2023-04-18T00:15:07.915Z,15.3695
2023-04-18T00:16:09.299Z,15.3727
2023-04-18T00:17:10.849Z,15.3452
2023-04-18T00:18:12.115Z,15.3662
2023-04-18T00:19:13.519Z,15.3762
2023-04-18T00:20:14.959Z,15.3625
2023-04-18T00:21:16.410Z,15.3695
2023-04-18T00:22:17.741Z,15.3615
2023-04-18T00:23:19.241Z,15.3824
2023-04-18T00:24:20.556Z,15.3838
2023-04-18T00:25:21.992Z,15.3853
2023-04-18T00:26:23.622Z,15.3832
2023-04-18T00:27:24.927Z,15.3664
2023-04-18T00:28:26.341Z,15.3785
2023-04-18T00:29:27.829Z,15.3997
2023-04-18T00:30:29.237Z,15.3912
2023-04-18T00:31:30.698Z,15.3931
2023-04-18T00:32:31.999Z,15.4128
2023-04-18T00:33:33.495Z,15.4079
2023-04-18T00:34:34.844Z,15.3822
2023-04-18T00:35:36.789Z,15.3884
2023-04-18T00:36:37.812Z,15.3867
2023-04-18T00:37:39.157Z,15.3822
2023-04-18T00:38:40.543Z,15.3945
2023-04-18T00:39:42.086Z,15.4042
2023-04-18T00:40:43.455Z,15.4060
2023-04-18T00:41:44.916Z,15.3999
2023-04-18T00:42:46.252Z,15.3894
2023-04-18T00:43:47.719Z,15.3783
2023-04-18T00:44:49.098Z,15.3752
2023-04-18T00:45:50.616Z,15.3713
2023-04-18T00:46:52.017Z,15.3680
2023-04-18T00:47:53.462Z,15.3803
2023-04-18T00:48:54.815Z,15.3793
2023-04-18T00:49:56.288Z,15.3717
2023-04-18T00:50:57.762Z,15.3621
2023-04-18T00:51:59.211Z,15.3832
2023-04-18T00:53:00.555Z,15.3861
2023-04-18T00:54:01.979Z,15.3664
2023-04-18T00:55:03.364Z,15.3806
2023-04-18T00:56:05.276Z,15.3962
2023-04-18T00:57:06.276Z,15.4163
2023-04-18T00:58:07.673Z,15.4364
2023-04-18T00:59:09.151Z,15.4360
2023-04-18T01:00:10.527Z,15.4165
2023-04-18T01:01:12.044Z,15.3929
2023-04-18T01:02:13.452Z,15.3884
2023-04-18T01:03:14.959Z,15.4120
2023-04-18T01:04:17.345Z,15.4218
2023-04-18T01:05:17.656Z,15.4101
2023-04-18T01:06:19.232Z,15.3898
2023-04-18T01:07:20.516Z,15.3947
2023-04-18T01:08:21.909Z,15.3968
2023-04-18T01:09:23.359Z,15.3990
2023-04-18T01:10:24.776Z,15.4083
2023-04-18T01:11:26.289Z,15.4434
2023-04-18T01:12:27.678Z,15.4284
2023-04-18T01:13:29.100Z,15.3931
2023-04-18T01:14:30.481Z,15.4083
2023-04-18T01:15:31.991Z,15.4270
2023-04-18T01:16:33.397Z,15.3982
2023-04-18T01:17:34.873Z,15.3995
2023-04-18T01:18:36.273Z,15.3912
2023-04-18T01:19:37.646Z,15.3896
2023-04-18T01:20:39.007Z,15.3684
2023-04-18T01:21:40.557Z,15.3551
2023-04-18T01:22:41.885Z,15.3686
2023-04-18T01:23:43.331Z,15.3467
2023-04-18T01:24:44.763Z,15.3635
2023-04-18T01:25:46.202Z,15.3666
2023-04-18T01:26:47.700Z,15.3623
2023-04-18T01:27:49.164Z,15.3738
2023-04-18T01:28:50.491Z,15.3890
2023-04-18T01:29:51.991Z,15.3921
2023-04-18T01:30:53.370Z,15.4038
2023-04-18T01:31:55.034Z,15.4134
2023-04-18T01:32:56.393Z,15.4042
2023-04-18T01:33:57.844Z,15.3964
2023-04-18T01:34:59.206Z,15.3795
2023-04-18T01:36:00.615Z,15.3584
2023-04-18T01:37:02.162Z,15.3649
2023-04-18T01:38:03.575Z,15.3584
2023-04-18T01:39:04.893Z,15.3662
2023-04-18T01:40:06.349Z,15.3662
2023-04-18T01:41:07.758Z,15.3701
2023-04-18T01:42:09.300Z,15.3908
2023-04-18T01:43:10.643Z,15.3892
2023-04-18T01:44:12.296Z,15.3849
2023-04-18T01:45:13.468Z,15.3812
2023-04-18T01:46:15.019Z,15.3744
2023-04-18T01:47:16.423Z,15.3709
2023-04-18T01:48:17.919Z,15.3754
2023-04-18T01:49:19.216Z,15.3643
2023-04-18T01:50:20.696Z,15.3851
2023-04-18T01:51:22.072Z,15.3754
2023-04-18T01:52:23.633Z,15.3892
2023-04-18T01:53:24.977Z,15.3845
2023-04-18T01:54:26.405Z,15.3734
2023-04-18T01:55:27.794Z,15.3836
2023-04-18T01:56:29.398Z,15.3649
2023-04-18T01:57:30.764Z,15.3666
2023-04-18T01:58:32.159Z,15.3612
2023-04-18T01:59:33.489Z,15.3732
2023-04-18T02:00:35.012Z,15.3847
2023-04-18T02:01:36.433Z,15.3960
2023-04-18T02:02:38.052Z,15.3966
2023-04-18T02:03:39.514Z,15.3711
2023-04-18T02:04:40.727Z,15.3750
2023-04-18T02:05:42.108Z,15.3623
2023-04-18T02:06:43.607Z,15.3518
2023-04-18T02:07:44.994Z,15.3573
2023-04-18T02:08:46.519Z,15.3762
2023-04-18T02:09:47.775Z,15.3808
2023-04-18T02:10:49.261Z,15.3489
2023-04-18T02:11:50.654Z,15.3697
2023-04-18T02:12:52.155Z,15.3703
2023-04-18T02:13:53.597Z,15.3693
2023-04-18T02:14:54.999Z,15.3836
2023-04-18T02:15:56.382Z,15.3877
2023-04-18T02:16:57.950Z,15.4003
2023-04-18T02:17:59.378Z,15.4114
2023-04-18T02:19:00.727Z,15.4052
2023-04-18T02:20:02.161Z,15.4105
2023-04-18T02:21:03.591Z,15.4073
2023-04-18T02:22:04.962Z,15.4264
2023-04-18T02:23:06.451Z,15.4171
2023-04-18T02:24:07.904Z,15.4019
2023-04-18T02:25:09.293Z,15.4177
2023-04-18T02:26:10.693Z,15.4071
2023-04-18T02:27:12.136Z,15.4085
2023-04-18T02:28:13.597Z,15.4140
2023-04-18T02:29:15.036Z,15.4149
2023-04-18T02:30:16.447Z,15.4321
2023-04-18T02:31:17.842Z,15.4097
2023-04-18T02:32:19.279Z,15.4083
2023-04-18T02:33:20.802Z,15.4204
2023-04-18T02:34:22.216Z,15.3980
2023-04-18T02:35:23.641Z,15.4001
2023-04-18T02:36:25.049Z,15.3886
2023-04-18T02:37:26.522Z,15.3707
2023-04-18T02:38:28.301Z,15.3514
2023-04-18T02:39:29.332Z,15.3460
2023-04-18T02:40:30.766Z,15.3481
2023-04-18T02:41:32.199Z,15.3534
2023-04-18T02:42:33.714Z,15.3528
2023-04-18T02:43:35.080Z,15.3658
2023-04-18T02:44:36.762Z,15.3263
2023-04-18T02:45:37.927Z,15.3311
2023-04-18T02:46:39.305Z,15.3541
2023-04-18T02:47:51.127Z,15.3419
2023-04-18T02:48:42.322Z,15.3869
2023-04-18T02:49:43.664Z,15.3734
2023-04-18T02:50:44.992Z,15.3767
2023-04-18T02:51:46.487Z,15.3691
2023-04-18T02:52:47.927Z,15.3631
2023-04-18T02:53:49.394Z,15.3222
2023-04-18T02:54:50.834Z,15.4243
2023-04-18T02:55:52.217Z,15.6248
2023-04-18T02:56:53.649Z,15.8466
2023-04-18T02:57:55.088Z,16.0793
2023-04-18T02:58:56.525Z,16.2116
2023-04-18T02:59:58.010Z,16.2967
2023-04-18T03:00:59.340Z,16.3550
2023-04-18T03:02:00.909Z,16.3994
2023-04-18T03:03:02.344Z,16.4415
2023-04-18T03:04:03.744Z,16.5206
2023-04-18T03:05:05.211Z,16.5752
2023-04-18T03:06:06.564Z,16.6153
2023-04-18T03:07:08.728Z,16.6592
2023-04-18T03:08:09.349Z,16.6980
2023-04-18T03:09:10.838Z,16.7562
2023-04-18T03:10:12.344Z,16.7911
2023-04-18T03:11:13.676Z,16.8112
2023-04-18T03:12:15.046Z,16.8348
2023-04-18T03:13:16.538Z,16.8926
2023-04-18T03:14:17.958Z,16.9618
2023-04-18T03:15:19.403Z,17.0035
2023-04-18T03:16:20.958Z,17.0429
2023-04-18T03:17:22.256Z,17.0667
2023-04-18T03:18:23.605Z,17.0493
2023-04-18T03:19:25.130Z,17.0402
2023-04-18T03:20:26.563Z,17.0690
2023-04-18T03:21:27.964Z,17.1084
2023-04-18T03:22:29.322Z,17.1187
2023-04-18T03:23:30.790Z,17.1222
2023-04-18T03:24:32.293Z,17.1113
2023-04-18T03:25:33.794Z,17.1249
2023-04-18T03:26:35.107Z,17.1809
2023-04-18T03:27:36.510Z,17.2454
2023-04-18T03:28:37.934Z,17.2563
2023-04-18T03:29:39.405Z,17.2512
2023-04-18T03:30:40.802Z,17.2701
2023-04-18T03:31:42.277Z,17.2648
2023-04-18T03:32:43.715Z,17.2949
2023-04-18T03:33:45.083Z,17.3157
2023-04-18T03:34:46.549Z,17.3463
2023-04-18T03:35:48.116Z,17.3510
2023-04-18T03:36:49.354Z,17.3481
2023-04-18T03:37:50.829Z,17.3391
2023-04-18T03:38:52.232Z,17.3323
2023-04-18T03:39:53.725Z,17.3455
2023-04-18T03:40:55.124Z,17.3615
2023-04-18T03:41:56.540Z,17.3549
2023-04-18T03:42:57.927Z,17.3430
2023-04-18T03:43:59.438Z,17.3596
2023-04-18T03:45:01.252Z,17.3775
2023-04-18T03:46:02.373Z,17.4083
2023-04-18T03:47:03.647Z,17.4102
2023-04-18T03:48:05.088Z,17.4188
2023-04-18T03:49:06.429Z,17.4346
2023-04-18T03:50:07.959Z,17.4094
2023-04-18T03:51:09.344Z,17.3728
2023-04-18T03:52:10.787Z,17.3707
2023-04-18T03:53:12.195Z,17.3820
2023-04-18T03:54:13.886Z,17.4094
2023-04-18T03:55:15.376Z,17.4059
2023-04-18T03:56:16.574Z,17.3974
2023-04-18T03:57:17.875Z,17.4217
2023-04-18T03:58:19.313Z,17.4217
2023-04-18T03:59:20.752Z,17.4560
2023-04-18T04:00:22.402Z,17.4667
2023-04-18T04:01:23.682Z,17.4482
2023-04-18T04:02:25.237Z,17.4515
2023-04-18T04:03:26.541Z,17.4806
2023-04-18T04:04:28.016Z,17.4739
2023-04-18T04:05:29.453Z,17.4437
2023-04-18T04:06:30.857Z,17.4363
2023-04-18T04:07:32.244Z,17.4517
2023-04-18T04:08:33.697Z,17.4414
2023-04-18T04:09:35.153Z,17.4420
2023-04-18T04:10:36.547Z,17.4574
2023-04-18T04:11:38.020Z,17.4747
2023-04-18T04:12:39.447Z,17.4878
2023-04-18T04:13:40.818Z,17.5016
2023-04-18T04:14:42.244Z,17.4985
2023-04-18T04:15:43.766Z,17.4683
2023-04-18T04:16:45.259Z,17.4356
2023-04-18T04:17:46.642Z,17.4903
2023-04-18T04:18:47.979Z,17.5121
2023-04-18T04:19:49.416Z,17.5061
2023-04-18T04:20:50.820Z,17.4913
2023-04-18T04:21:52.285Z,17.4876
2023-04-18T04:22:53.682Z,17.4810
2023-04-18T04:23:55.104Z,17.4761
2023-04-18T04:24:56.494Z,17.4673
2023-04-18T04:25:58.094Z,17.5004
2023-04-18T04:26:59.450Z,17.5373
2023-04-18T04:28:00.865Z,17.5219
2023-04-18T04:29:02.227Z,17.4628
2023-04-18T04:30:03.761Z,17.3771
2023-04-18T04:31:05.140Z,17.4151
2023-04-18T04:32:06.746Z,17.4915
2023-04-18T04:33:07.961Z,17.5453
2023-04-18T04:34:09.395Z,17.5386
2023-04-18T04:35:10.762Z,17.5297
2023-04-18T04:36:12.305Z,17.5049
2023-04-18T04:37:13.748Z,17.4812
2023-04-18T04:38:15.196Z,17.5096
2023-04-18T04:39:16.567Z,17.5351
2023-04-18T04:40:17.973Z,17.5620
2023-04-18T04:41:19.410Z,17.5722
2023-04-18T04:42:20.934Z,17.5776
2023-04-18T04:43:22.280Z,17.5624
2023-04-18T04:44:23.744Z,17.4995
2023-04-18T04:45:25.052Z,17.5133
2023-04-18T04:46:26.576Z,17.5505
2023-04-18T04:47:28.094Z,17.5907
2023-04-18T04:48:29.446Z,17.5840
2023-04-18T04:49:30.846Z,17.5708
2023-04-18T04:50:32.307Z,17.5607
2023-04-18T04:51:33.720Z,17.5811
2023-04-18T04:52:35.131Z,17.6057
2023-04-18T04:53:36.575Z,17.6542
2023-04-18T04:54:38.045Z,17.7267
2023-04-18T04:55:39.382Z,17.9434
2023-04-18T04:56:40.903Z,18.1852
2023-04-18T04:57:42.370Z,18.4015
2023-04-18T04:58:43.800Z,18.5629
2023-04-18T04:59:45.145Z,18.7281
2023-04-18T05:00:46.610Z,18.9316
2023-04-18T05:01:48.068Z,19.1391
2023-04-18T05:02:49.617Z,19.2792
2023-04-18T05:03:51.512Z,19.5031
2023-04-18T05:04:52.359Z,19.7134
2023-04-18T05:05:53.739Z,19.9219
2023-04-18T05:06:55.168Z,19.9940
2023-04-18T05:07:56.612Z,20.1542
2023-04-18T05:08:58.068Z,20.2966
2023-04-18T05:09:59.582Z,20.3647
2023-04-18T05:11:00.835Z,20.5276
2023-04-18T05:12:02.328Z,20.7805
2023-04-18T05:13:03.717Z,20.9510
2023-04-18T05:14:05.286Z,21.0040
2023-04-18T05:15:06.623Z,21.0637
2023-04-18T05:16:08.044Z,21.0525
2023-04-18T05:17:09.512Z,21.0366
2023-04-18T05:18:10.914Z,21.1724
2023-04-18T05:19:12.405Z,21.2611
2023-04-18T05:20:13.870Z,21.3396
2023-04-18T05:21:15.249Z,21.4298
2023-04-18T05:22:16.666Z,21.4869
2023-04-18T05:23:18.101Z,21.3830
2023-04-18T05:24:19.496Z,21.4055
2023-04-18T05:25:20.968Z,21.5247
2023-04-18T05:26:22.404Z,21.7648
2023-04-18T05:27:23.799Z,21.8533
2023-04-18T05:28:25.152Z,21.7625
2023-04-18T05:29:26.611Z,21.6202
2023-04-18T05:30:28.047Z,21.6592
2023-04-18T05:31:29.587Z,21.8804
2023-04-18T05:32:30.969Z,22.0552
2023-04-18T05:33:32.399Z,22.0885
2023-04-18T05:34:33.973Z,21.9587
2023-04-18T05:35:35.314Z,21.7009
2023-04-18T05:36:36.722Z,21.8223
2023-04-18T05:37:38.139Z,22.0854
2023-04-18T05:38:39.630Z,22.3095
2023-04-18T05:39:41.042Z,22.2376
2023-04-18T05:40:42.458Z,22.0146
2023-04-18T05:41:43.818Z,21.9343
2023-04-18T05:42:45.347Z,22.1762
2023-04-18T05:43:54.531Z,22.4104
2023-04-18T05:44:48.192Z,22.5291
2023-04-18T05:45:49.537Z,22.3870
2023-04-18T05:46:50.965Z,22.0762
2023-04-18T05:47:52.908Z,22.0374
2023-04-18T05:48:53.995Z,22.3508
2023-04-18T05:49:55.272Z,22.5704
2023-04-18T05:50:56.771Z,22.5708
2023-04-18T05:51:58.928Z,22.4264
2023-04-18T05:52:59.627Z,22.0783
2023-04-18T05:54:01.145Z,22.1974
2023-04-18T05:55:02.453Z,22.4615
2023-04-18T05:56:03.838Z,22.6528
2023-04-18T05:57:05.263Z,22.6185
2023-04-18T05:58:06.879Z,22.3089
2023-04-18T05:59:08.137Z,22.0898
2023-04-18T06:00:09.587Z,22.3494
2023-04-18T06:01:10.981Z,22.6086
2023-04-18T06:02:12.509Z,22.7370
2023-04-18T06:03:14.046Z,22.5690
2023-04-18T06:04:15.640Z,22.2309
2023-04-18T06:05:16.835Z,22.3134
2023-04-18T06:06:18.108Z,22.6047
2023-04-18T06:07:19.579Z,22.8502
2023-04-18T06:08:20.993Z,22.7267
2023-04-18T06:09:22.390Z,22.4827
2023-04-18T06:10:23.924Z,22.4073
2023-04-18T06:11:25.830Z,22.5445
2023-04-18T06:12:26.728Z,22.8376
2023-04-18T06:13:28.337Z,22.8962
2023-04-18T06:14:29.619Z,22.6439
2023-04-18T06:15:30.897Z,22.3625
2023-04-18T06:16:32.513Z,22.3681
2023-04-18T06:17:33.833Z,22.7019
2023-04-18T06:18:35.298Z,22.9523
2023-04-18T06:19:36.687Z,22.8424
2023-04-18T06:20:38.167Z,22.6760
2023-04-18T06:21:39.525Z,22.5137
2023-04-18T06:22:41.108Z,22.6721
2023-04-18T06:23:42.462Z,22.9416
2023-04-18T06:24:43.876Z,23.0336
2023-04-18T06:25:45.257Z,22.8459
2023-04-18T06:26:46.674Z,22.7370
2023-04-18T06:27:48.198Z,22.7220
2023-04-18T06:28:49.900Z,22.9383
2023-04-18T06:29:51.006Z,23.1679
2023-04-18T06:30:52.661Z,23.0141
2023-04-18T06:31:53.889Z,22.7471
2023-04-18T06:32:55.244Z,22.5961
2023-04-18T06:33:56.884Z,22.7832
2023-04-18T06:34:58.114Z,23.0737
2023-04-18T06:35:59.564Z,23.0958
2023-04-18T06:37:00.964Z,22.8052
2023-04-18T06:38:02.453Z,22.4669
2023-04-18T06:39:03.908Z,22.6191
2023-04-18T06:40:05.298Z,22.9500
2023-04-18T06:41:06.692Z,23.1501
2023-04-18T06:42:08.852Z,22.9783
2023-04-18T06:43:09.532Z,22.6109
2023-04-18T06:44:11.078Z,22.6269
2023-04-18T06:45:12.372Z,22.9104
2023-04-18T06:46:13.917Z,23.1478
2023-04-18T06:47:15.176Z,23.1277
2023-04-18T06:48:16.571Z,22.9603
2023-04-18T06:49:18.104Z,22.8196
2023-04-18T06:50:19.538Z,22.9058
2023-04-18T06:51:20.939Z,23.1669
2023-04-18T06:52:22.329Z,23.2191
2023-04-18T06:53:23.748Z,22.8286
2023-04-18T06:54:25.215Z,22.6181
2023-04-18T06:55:26.678Z,22.7783
2023-04-18T06:56:28.131Z,23.0979
2023-04-18T06:57:29.452Z,23.1889
2023-04-18T06:58:30.850Z,23.0198
2023-04-18T06:59:32.351Z,22.7427
2023-04-18T07:00:33.825Z,22.7545
2023-04-18T07:01:35.906Z,23.0539
2023-04-18T07:02:36.695Z,23.2758
2023-04-18T07:03:38.039Z,23.1379
2023-04-18T07:04:39.495Z,22.9391
2023-04-18T07:05:40.977Z,22.7193
2023-04-18T07:06:42.280Z,22.8438
2023-04-18T07:07:43.712Z,23.1938
2023-04-18T07:08:45.090Z,23.1439
2023-04-18T07:09:46.597Z,22.9728
2023-04-18T07:10:47.997Z,22.9025
2023-04-18T07:11:49.415Z,22.9664
2023-04-18T07:12:50.791Z,23.2474
2023-04-18T07:13:52.282Z,23.4054
2023-04-18T07:14:54.354Z,23.2363
2023-04-18T07:15:55.403Z,23.1073
2023-04-18T07:16:56.542Z,23.0326
2023-04-18T07:17:58.870Z,23.1889
2023-04-18T07:18:59.375Z,23.4393
2023-04-18T07:20:00.850Z,23.4054
2023-04-18T07:21:02.299Z,23.1234
2023-04-18T07:22:03.667Z,22.8181
2023-04-18T07:23:05.000Z,23.0461
2023-04-18T07:24:06.511Z,23.4440
2023-04-18T07:25:07.976Z,23.4637
2023-04-18T07:26:09.368Z,23.3208
2023-04-18T07:27:10.849Z,23.2086
2023-04-18T07:28:12.193Z,23.1844
2023-04-18T07:29:13.617Z,23.3616
2023-04-18T07:30:15.064Z,23.7139
2023-04-18T07:31:16.731Z,23.7480
2023-04-18T07:32:17.876Z,23.5112
2023-04-18T07:33:19.323Z,23.4039
2023-04-18T07:34:20.694Z,23.4173
2023-04-18T07:35:22.234Z,23.7519
2023-04-18T07:36:23.644Z,23.8189
2023-04-18T07:37:25.041Z,23.5338
2023-04-18T07:38:26.408Z,23.2682
2023-04-18T07:39:27.846Z,23.3990
2023-04-18T07:40:29.260Z,23.7192
2023-04-18T07:41:30.727Z,23.8546
2023-04-18T07:42:32.074Z,23.6964
2023-04-18T07:43:33.580Z,23.4808
2023-04-18T07:44:34.921Z,23.4613
2023-04-18T07:45:36.409Z,23.5935
2023-04-18T07:46:37.843Z,23.8010
2023-04-18T07:47:39.269Z,23.6831
2023-04-18T07:48:40.682Z,23.4267
2023-04-18T07:49:42.073Z,23.2967
2023-04-18T07:50:43.568Z,23.4391
2023-04-18T07:51:44.918Z,23.7644
2023-04-18T07:52:46.290Z,23.7803
2023-04-18T07:53:47.707Z,23.5087
2023-04-18T07:54:49.108Z,23.4144
2023-04-18T07:55:50.625Z,23.4742
2023-04-18T07:56:52.046Z,23.7400
2023-04-18T07:57:53.456Z,23.7675
2023-04-18T07:58:54.873Z,23.5640
2023-04-18T07:59:56.227Z,23.2918
2023-04-18T08:00:57.772Z,23.4210
2023-04-18T08:01:59.285Z,23.7425
2023-04-18T08:03:00.741Z,23.9195
2023-04-18T08:04:02.346Z,23.7149
2023-04-18T08:05:03.558Z,23.6593
2023-04-18T08:06:04.912Z,23.5841
2023-04-18T08:07:06.251Z,23.6790
2023-04-18T08:08:07.622Z,23.9514
2023-04-18T08:09:09.070Z,24.0397
2023-04-18T08:10:10.476Z,23.9129
2023-04-18T08:11:11.996Z,23.6921
2023-04-18T08:12:13.353Z,23.7632
2023-04-18T08:13:14.780Z,24.0826
2023-04-18T08:14:16.132Z,24.2005
2023-04-18T08:15:17.575Z,23.7669
2023-04-18T08:16:19.033Z,23.2515
2023-04-18T08:17:20.531Z,22.8871
2023-04-18T08:18:21.839Z,22.9615
2023-04-18T08:19:23.285Z,23.0808
2023-04-18T08:20:24.672Z,22.9434
2023-04-18T08:21:26.174Z,22.6470
2023-04-18T08:22:27.551Z,22.2697
2023-04-18T08:23:28.991Z,22.2023
2023-04-18T08:24:30.358Z,22.3514
2023-04-18T08:25:31.892Z,22.3553
2023-04-18T08:26:33.338Z,22.1549
2023-04-18T08:27:34.749Z,21.8242
2023-04-18T08:28:36.065Z,21.6524
2023-04-18T08:29:37.549Z,21.7551
2023-04-18T08:30:38.908Z,21.9160
2023-04-18T08:31:40.429Z,21.8262
2023-04-18T08:32:41.843Z,21.6237
2023-04-18T08:33:43.194Z,21.2554
2023-04-18T08:34:44.579Z,21.2106
2023-04-18T08:35:46.050Z,21.3168
2023-04-18T08:36:47.494Z,21.4320
2023-04-18T08:37:49.010Z,21.3232
2023-04-18T08:38:50.192Z,21.2197
2023-04-18T08:39:51.764Z,20.9524
2023-04-18T08:40:53.130Z,20.9649
2023-04-18T08:41:54.632Z,21.0720
2023-04-18T08:42:56.000Z,21.1938
2023-04-18T08:43:57.393Z,21.1761
2023-04-18T08:44:58.743Z,20.9107
2023-04-18T08:46:00.305Z,20.6714
2023-04-18T08:47:01.837Z,20.6595
2023-04-18T08:48:03.204Z,20.8095
2023-04-18T08:49:04.540Z,21.0124
2023-04-18T08:50:06.061Z,21.0054
2023-04-18T08:51:07.334Z,20.7575
2023-04-18T08:52:08.770Z,20.6246
2023-04-18T08:53:10.284Z,20.7766
2023-04-18T08:54:11.653Z,20.9740
2023-04-18T08:55:13.041Z,21.0861
2023-04-18T08:56:14.427Z,21.0218
2023-04-18T08:57:15.904Z,20.7250
2023-04-18T08:58:17.295Z,20.5496
2023-04-18T08:59:18.691Z,20.6609
2023-04-18T09:00:20.132Z,20.8049
2023-04-18T09:01:21.608Z,20.8520
2023-04-18T09:02:23.138Z,20.7047
2023-04-18T09:03:24.484Z,20.4112
2023-04-18T09:04:25.870Z,20.3984
2023-04-18T09:05:27.374Z,20.5102
2023-04-18T09:06:28.684Z,20.6628
2023-04-18T09:07:30.122Z,20.7392
2023-04-18T09:08:31.533Z,20.5839
2023-04-18T09:09:32.956Z,20.2931
2023-04-18T09:10:34.393Z,20.2857
2023-04-18T09:11:35.802Z,20.4416
2023-04-18T09:12:37.285Z,20.6464
2023-04-18T09:13:38.776Z,20.6829
2023-04-18T09:14:40.073Z,20.4839
2023-04-18T09:15:42.325Z,20.2169
2023-04-18T09:16:42.918Z,20.2639
2023-04-18T09:17:44.337Z,20.4732
2023-04-18T09:18:45.772Z,20.7912
2023-04-18T09:19:47.453Z,20.9440
2023-04-18T09:20:48.543Z,20.8620
2023-04-18T09:21:50.038Z,20.6860
2023-04-18T09:22:51.411Z,20.7359
2023-04-18T09:23:52.944Z,20.9267
2023-04-18T09:24:54.322Z,21.0792
2023-04-18T09:25:55.723Z,21.0093
2023-04-18T09:26:57.125Z,20.6998
2023-04-18T09:27:58.551Z,20.4315
2023-04-18T09:28:59.998Z,20.4553
2023-04-18T09:30:01.471Z,20.5075
2023-04-18T09:31:02.891Z,20.6320
2023-04-18T09:32:04.227Z,20.6770
2023-04-18T09:33:05.790Z,20.5161
2023-04-18T09:34:07.149Z,20.2076
2023-04-18T09:35:08.557Z,20.1540
2023-04-18T09:36:10.057Z,20.2703
2023-04-18T09:37:11.559Z,20.4496
2023-04-18T09:38:12.900Z,20.5681
2023-04-18T09:39:14.455Z,20.4839
2023-04-18T09:40:15.878Z,20.2156
2023-04-18T09:41:19.898Z,20.2273
2023-04-18T09:42:18.578Z,20.4120
2023-04-18T09:43:20.042Z,20.6192
2023-04-18T09:44:21.477Z,20.6688
2023-04-18T09:45:22.873Z,20.5866
2023-04-18T09:46:24.265Z,20.3364
2023-04-18T09:47:25.797Z,20.3999
2023-04-18T09:48:27.214Z,20.6057
2023-04-18T09:49:28.607Z,20.8341
2023-04-18T09:50:30.031Z,20.8653
2023-04-18T09:51:31.344Z,20.7059
2023-04-18T09:52:32.752Z,20.4950
2023-04-18T09:53:34.226Z,20.4915
2023-04-18T09:54:35.713Z,20.6299
2023-04-18T09:55:37.135Z,20.7973
2023-04-18T09:56:38.574Z,20.7575
2023-04-18T09:57:40.021Z,20.5925
2023-04-18T09:58:41.318Z,20.3820
2023-04-18T09:59:42.793Z,20.5504
2023-04-18T10:00:46.363Z,20.8368
2023-04-18T10:01:45.626Z,21.0272
2023-04-18T10:02:47.120Z,20.9723
2023-04-18T10:03:48.665Z,20.6805
2023-04-18T10:04:49.951Z,20.5537
2023-04-18T10:05:51.424Z,20.6244
2023-04-18T10:06:53.446Z,20.8565
2023-04-18T10:07:54.085Z,21.0781
2023-04-18T10:08:55.587Z,21.0683
2023-04-18T10:09:57.004Z,20.7458
2023-04-18T10:10:58.417Z,20.6114
2023-04-18T10:11:59.803Z,20.7741
2023-04-18T10:13:01.226Z,20.9896
2023-04-18T10:14:02.596Z,21.0868
2023-04-18T10:15:04.136Z,20.9676
2023-04-18T10:16:05.989Z,20.6642
2023-04-18T10:17:06.963Z,20.6240
2023-04-18T10:18:08.339Z,20.9105
2023-04-18T10:19:09.892Z,21.1909
2023-04-18T10:20:11.209Z,21.2669
2023-04-18T10:21:12.597Z,21.0356
2023-04-18T10:22:14.043Z,20.7133
2023-04-18T10:23:15.425Z,20.6556
2023-04-18T10:24:16.803Z,20.8123
2023-04-18T10:25:18.337Z,21.0964
2023-04-18T10:26:19.734Z,21.2077
2023-04-18T10:27:21.099Z,21.0816
2023-04-18T10:28:23.408Z,20.8312
2023-04-18T10:29:23.964Z,20.7507
2023-04-18T10:30:25.465Z,20.8896
2023-04-18T10:31:27.160Z,21.1471
2023-04-18T10:32:28.317Z,21.2724
2023-04-18T10:33:31.921Z,21.1145
2023-04-18T10:34:31.057Z,20.8497
2023-04-18T10:35:32.565Z,20.9364
2023-04-18T10:36:33.950Z,21.2907
2023-04-18T10:37:35.336Z,21.7562
2023-04-18T10:38:36.714Z,21.7667
2023-04-18T10:39:38.177Z,21.9743
2023-04-18T10:40:39.559Z,22.1571
2023-04-18T10:41:41.042Z,21.9903
2023-04-18T10:42:42.394Z,22.0016
2023-04-18T10:43:45.471Z,22.0170
2023-04-18T10:55:55.265Z,21.2926
2023-04-18T10:55:55.265Z,21.8427
2023-04-18T10:56:57.614Z,21.0324
2023-04-18T10:57:58.877Z,20.7074
2023-04-18T10:59:00.411Z,20.5385
2023-04-18T11:00:01.965Z,20.6669
2023-04-18T11:01:03.334Z,20.7805
2023-04-18T11:02:04.771Z,20.9052
2023-04-18T11:03:06.245Z,20.9424
2023-04-18T11:04:07.749Z,20.8922
2023-04-18T11:05:08.970Z,20.6819
2023-04-18T11:06:10.380Z,20.7462
2023-04-18T11:07:11.716Z,20.9430
2023-04-18T11:08:13.195Z,21.1287
2023-04-18T11:09:14.788Z,21.1024
2023-04-18T11:10:16.122Z,20.9537
2023-04-18T11:11:17.567Z,20.7842
2023-04-18T11:12:18.863Z,20.8004
2023-04-18T11:13:20.325Z,20.9602
2023-04-18T11:14:21.758Z,21.1313
2023-04-18T11:15:23.161Z,21.1108
2023-04-18T11:16:24.610Z,20.7503
2023-04-18T11:17:26.164Z,20.6585
2023-04-18T11:18:27.493Z,20.7415
2023-04-18T11:19:28.858Z,21.1071
2023-04-18T11:20:30.309Z,21.3760
2023-04-18T11:21:31.698Z,21.4592
2023-04-18T11:22:33.202Z,21.2540
2023-04-18T11:23:34.604Z,21.0529
2023-04-18T11:24:35.981Z,21.0525
2023-04-18T11:25:37.340Z,21.2476
2023-04-18T11:26:38.817Z,21.3797
2023-04-18T11:27:40.241Z,21.4474
2023-04-18T11:28:41.684Z,21.2519
2023-04-18T11:29:43.113Z,20.9799
2023-04-18T11:30:44.496Z,20.9384
2023-04-18T11:31:46.001Z,21.0956
2023-04-18T11:32:47.482Z,21.2293
2023-04-18T11:33:48.831Z,21.3489
2023-04-18T11:34:50.186Z,21.1761
2023-04-18T11:35:51.635Z,20.9025
2023-04-18T11:36:53.155Z,20.8107
2023-04-18T11:37:54.504Z,21.0060
2023-04-18T11:38:55.973Z,21.2192
2023-04-18T11:39:57.236Z,21.3675
2023-04-18T11:40:58.729Z,21.2646
2023-04-18T11:42:00.201Z,21.0311
2023-04-18T11:43:01.604Z,21.0255
2023-04-18T11:44:03.076Z,21.2184
2023-04-18T11:45:04.425Z,21.4263
2023-04-18T11:46:05.867Z,21.4037
2023-04-18T11:47:07.194Z,21.1463
2023-04-18T11:48:08.861Z,20.8887
2023-04-18T11:49:10.304Z,20.8756
2023-04-18T11:50:11.576Z,21.0777
2023-04-18T11:51:12.998Z,21.3135
2023-04-18T11:52:14.417Z,21.2874
2023-04-18T11:53:15.718Z,21.1455
2023-04-18T11:54:17.293Z,20.9401
2023-04-18T11:55:18.676Z,21.0311
2023-04-18T11:56:20.128Z,21.1843
2023-04-18T11:57:21.567Z,21.3468
2023-04-18T11:58:22.967Z,21.3055
2023-04-18T11:59:24.485Z,21.0713
2023-04-18T12:00:25.735Z,20.9941
2023-04-18T12:01:27.111Z,21.1159
2023-04-18T12:02:28.798Z,21.3400
2023-04-18T12:03:30.319Z,21.3932
2023-04-18T12:04:31.723Z,21.2648
2023-04-18T12:05:33.044Z,20.9678
2023-04-18T12:06:34.345Z,20.8959
2023-04-18T12:07:35.731Z,21.0896
2023-04-18T12:08:37.077Z,21.3082
2023-04-18T12:09:38.701Z,21.3443
2023-04-18T12:10:40.069Z,21.2022
2023-04-18T12:11:41.469Z,20.9368
2023-04-18T12:12:42.989Z,20.9534
2023-04-18T12:13:44.256Z,21.1558
2023-04-18T12:14:45.732Z,21.3690
2023-04-18T12:15:47.219Z,21.3836
2023-04-18T12:16:48.543Z,21.1864
2023-04-18T12:17:50.006Z,20.9656
2023-04-18T12:18:51.354Z,20.9272
2023-04-18T12:19:52.919Z,21.1087
2023-04-18T12:20:54.372Z,21.3022
2023-04-18T12:21:55.671Z,21.3189
2023-04-18T12:22:57.161Z,21.1297
2023-04-18T12:23:58.569Z,20.9434
2023-04-18T12:24:59.964Z,21.0221
2023-04-18T12:26:01.449Z,21.2488
2023-04-18T12:27:02.820Z,21.3725
2023-04-18T12:28:04.398Z,21.2548
2023-04-18T12:29:05.711Z,21.1114
2023-04-18T12:30:07.206Z,21.0075
2023-04-18T12:31:08.600Z,21.1229
2023-04-18T12:32:09.855Z,21.3464
2023-04-18T12:33:11.326Z,21.4316